ADDS METAR Data INFO
IDs: Format: Raw Decoded Include TAF

Data at: 1945 UTC 17 Feb 2018

KPHN 171935Z AUTO 19008G16KT 10SM CLR M01/M06 A2999 RMK AO2
KPHN 171915Z AUTO 19010G15KT 10SM CLR M01/M06 A3001 RMK AO2
KPHN 171855Z AUTO 19011G15KT 10SM CLR M01/M06 A3003 RMK AO2
KPHN 171835Z AUTO 20011G14KT 10SM SCT025 SCT120 M01/M07 A3005 RMK AO2
KPHN 171815Z AUTO 20010KT 10SM SCT025 SCT120 M01/M07 A3005 RMK AO2
KPHN 171755Z AUTO 20009KT 10SM SCT025 M01/M07 A3006 RMK AO2
KPHN 171735Z AUTO 19008KT 10SM CLR M01/M07 A3007 RMK AO2
KPHN 171715Z AUTO 19010G15KT 10SM CLR M01/M07 A3009 RMK AO2
KPHN 171655Z AUTO 19011G17KT 10SM CLR M01/M07 A3009 RMK AO2
KPHN 171635Z AUTO 19010G16KT 160V230 10SM CLR M01/M07 A3010 RMK AO2
KPHN 171615Z AUTO 21009G16KT 10SM CLR M01/M08 A3012 RMK AO2
KPHN 171555Z AUTO 20010G15KT 10SM CLR M01/M08 A3014 RMK AO2
KPHN 171535Z AUTO 19012G16KT 10SM CLR M01/M08 A3014 RMK AO2
KPHN 171515Z AUTO 19008KT 10SM SCT036 M02/M07 A3016 RMK AO2
KPHN 171455Z AUTO 19009KT 10SM BKN036 M02/M07 A3017 RMK AO2
KPHN 171435Z AUTO 19006KT 10SM BKN036 M03/M07 A3018 RMK AO2
KPHN 171415Z AUTO 19006KT 10SM BKN036 M03/M07 A3019 RMK AO2
KPHN 171355Z AUTO 18007KT 10SM OVC036 M04/M07 A3019 RMK AO2
KPHN 171335Z AUTO 18007KT 10SM OVC036 M04/M07 A3021 RMK AO2
KPHN 171315Z AUTO 18004KT 10SM OVC036 M05/M07 A3019 RMK AO2
KPHN 171255Z AUTO 18004KT 10SM OVC036 M06/M08 A3020 RMK AO2
KPHN 171235Z AUTO 00000KT 10SM OVC036 M07/M08 A3020 RMK AO2
KPHN 171215Z AUTO 00000KT 10SM OVC034 M07/M09 A3020 RMK AO2
KPHN 171155Z AUTO 00000KT 10SM OVC034 M09/M10 A3020 RMK AO2
KPHN 171135Z AUTO 00000KT 10SM OVC034 M10/M12 A3021 RMK AO2
KPHN 171115Z AUTO 00000KT 10SM BKN032 M11/M12 A3022 RMK AO2
KPHN 171055Z AUTO 00000KT 10SM SCT032 M11/M12 A3022 RMK AO2
KPHN 171035Z AUTO 18003KT 10SM CLR M09/M11 A3022 RMK AO2
KPHN 171015Z AUTO 00000KT 10SM CLR M12/M13 A3022 RMK AO2
KPHN 170955Z AUTO 00000KT 10SM CLR M11/M13 A3022 RMK AO2
KPHN 170935Z AUTO 00000KT 10SM CLR M11/M13 A3023 RMK AO2
KPHN 170915Z AUTO 00000KT 10SM CLR M11/M13 A3024 RMK AO2
KPHN 170855Z AUTO 00000KT 10SM CLR M11/M13 A3024 RMK AO2
KPHN 170835Z AUTO 00000KT 10SM CLR M11/M12 A3023 RMK AO2
KPHN 170815Z AUTO 00000KT 10SM CLR M10/M11 A3023 RMK AO2
KPHN 170755Z AUTO 00000KT 10SM CLR M10/M11 A3023 RMK AO2
KPHN 170735Z AUTO 00000KT 10SM CLR M09/M11 A3024 RMK AO2
KPHN 170715Z AUTO 00000KT 10SM CLR M10/M11 A3026 RMK AO2
KPHN 170655Z AUTO 00000KT 10SM CLR M10/M12 A3026 RMK AO2
KPHN 170635Z AUTO 00000KT 10SM CLR M09/M11 A3026 RMK AO2
KPHN 170615Z AUTO 00000KT 10SM CLR M07/M10 A3024 RMK AO2
KPHN 170555Z AUTO 00000KT 10SM CLR M09/M11 A3025 RMK AO2
KPHN 170535Z AUTO 00000KT 10SM CLR M09/M11 A3024 RMK AO2
KPHN 170515Z AUTO 20003KT 10SM CLR M08/M11 A3024 RMK AO2
KPHN 170455Z AUTO 19003KT 10SM CLR M08/M10 A3024 RMK AO2
KPHN 170435Z AUTO 19003KT 10SM CLR M09/M10 A3024 RMK AO2
KPHN 170415Z AUTO 00000KT 10SM CLR M09/M10 A3025 RMK AO2
KPHN 170355Z AUTO 00000KT 10SM CLR M08/M10 A3026 RMK AO2
KPHN 170335Z AUTO 00000KT 10SM CLR M08/M10 A3025 RMK AO2
KPHN 170315Z AUTO 00000KT 10SM CLR M08/M10 A3025 RMK AO2
KPHN 170255Z AUTO 00000KT 10SM CLR M08/M10 A3025 RMK AO2
KPHN 170236Z AUTO 00000KT 10SM CLR M07/M10 A3025 RMK AO2
KPHN 170215Z AUTO 00000KT 10SM CLR M08/M10 A3025 RMK AO2
KPHN 170155Z AUTO 00000KT 10SM CLR M07/M10 A3025 RMK AO2
KPHN 170136Z AUTO 00000KT 10SM CLR M07/M10 A3025 RMK AO2
KPHN 170115Z AUTO 00000KT 10SM CLR M07/M10 A3024 RMK AO2
KPHN 170055Z AUTO 00000KT 10SM CLR M05/M09 A3024 RMK AO2
KPHN 170035Z AUTO 00000KT 10SM SCT043 M05/M10 A3024 RMK AO2
KPHN 170015Z AUTO 00000KT 10SM SCT043 M04/M10 A3024 RMK AO2
KPHN 162355Z AUTO 00000KT 10SM SCT043 M02/M10 A3023 RMK AO2
KPHN 162335Z AUTO 00000KT 10SM BKN043 M02/M11 A3022 RMK AO2
KPHN 162315Z AUTO 00000KT 10SM BKN045 M02/M11 A3022 RMK AO2
KPHN 162255Z AUTO 00000KT 10SM BKN045 M02/M11 A3021 RMK AO2
KPHN 162235Z AUTO 28003KT 10SM SCT047 M02/M11 A3020 RMK AO2
KPHN 162215Z AUTO 30005KT 10SM SCT047 M01/M11 A3019 RMK AO2
KPHN 162155Z AUTO 31006KT 10SM SCT044 M01/M10 A3019 RMK AO2
KPHN 162135Z AUTO 29009G15KT 10SM SCT044 M01/M11 A3018 RMK AO2
KPHN 162115Z AUTO 30009G15KT 10SM BKN042 BKN048 M00/M11 A3018 RMK AO2
KPHN 162055Z AUTO 31006KT 10SM OVC040 00/M10 A3017 RMK AO2
KPHN 162035Z AUTO 32007KT 10SM OVC040 M01/M10 A3016 RMK AO2
KPHN 162015Z AUTO 32008KT 10SM OVC038 M01/M10 A3015 RMK AO2
KPHN 161955Z AUTO 34008G16KT 10SM OVC036 M02/M10 A3014 RMK AO2
KPHN 161935Z AUTO 31012G15KT 10SM OVC034 M01/M10 A3013 RMK AO2
KPHN 161915Z AUTO 31008G15KT 300V360 10SM OVC032 M01/M09 A3012 RMK AO2
KPHN 161855Z AUTO 33008G15KT 10SM OVC030 M01/M08 A3011 RMK AO2
KPHN 161835Z AUTO 34006KT 10SM OVC030 M01/M08 A3010 RMK AO2
KPHN 161815Z AUTO 32005G14KT 290V360 10SM OVC030 M01/M08 A3009 RMK AO2
KPHN 161755Z AUTO 33012G20KT 10SM OVC030 M01/M08 A3009 RMK AO2
KPHN 161735Z AUTO 32010G19KT 10SM OVC026 M01/M08 A3008 RMK AO2
KPHN 161715Z AUTO 32008KT 10SM OVC024 M01/M07 A3007 RMK AO2
KPHN 161655Z AUTO 34009G16KT 10SM OVC024 M01/M07 A3006 RMK AO2
KPHN 161635Z AUTO 32011G16KT 10SM OVC024 M02/M07 A3006 RMK AO2
KPHN 161615Z AUTO 33010G16KT 10SM OVC024 M01/M07 A3004 RMK AO2
KPHN 161556Z AUTO 33011G19KT 10SM OVC026 M01/M07 A3003 RMK AO2
KPHN 161535Z AUTO 33009G15KT 10SM OVC022 M01/M06 A3002 RMK AO2
KPHN 161515Z AUTO 32008G15KT 10SM OVC020 M01/M06 A3001 RMK AO2
KPHN 161456Z AUTO 33011G16KT 300V360 10SM OVC018 M02/M06 A3000 RMK AO2
KPHN 161435Z AUTO 33011G15KT 10SM OVC016 M01/M05 A2999 RMK AO2
KPHN 161415Z AUTO 32008KT 10SM OVC016 M01/M05 A2997 RMK AO2
KPHN 161355Z AUTO 32011KT 300V010 10SM OVC016 M01/M05 A2997 RMK AO2
KPHN 161335Z AUTO 32009G14KT 10SM OVC016 M01/M05 A2995 RMK AO2
KPHN 161315Z AUTO 34009G17KT 10SM OVC016 M01/M05 A2993 RMK AO2
KPHN 161255Z AUTO 33011G15KT 10SM OVC018 M01/M04 A2992 RMK AO2
KPHN 161235Z AUTO 33007KT 290V350 10SM OVC014 M01/M04 A2991 RMK AO2
KPHN 161215Z AUTO 32009G14KT 10SM OVC014 M01/M04 A2989 RMK AO2
KPHN 161155Z AUTO 33007KT 10SM OVC012 M00/M03 A2987 RMK AO2
KPHN 161135Z AUTO 35005KT 10SM OVC012 M01/M03 A2986 RMK AO2
KPHN 161115Z AUTO 36005KT 10SM OVC012 M01/M03 A2986 RMK AO2
KPHN 161055Z AUTO 36006KT 10SM OVC012 M00/M03 A2986 RMK AO2
KPHN 161035Z AUTO 01004KT 10SM OVC012 M00/M03 A2984 RMK AO2
KPHN 161015Z AUTO 02006KT 10SM OVC012 M00/M03 A2982 RMK AO2
KPHN 160955Z AUTO 02009KT 10SM OVC010 00/M03 A2980 RMK AO2
KPHN 160935Z AUTO 36006KT 10SM OVC010 00/M02 A2982 RMK AO2
KPHN 160915Z AUTO 35003KT 10SM OVC010 00/M02 A2981 RMK AO2
KPHN 160855Z AUTO 03006KT 10SM BKN010 OVC015 00/M02 A2979 RMK AO2
KPHN 160835Z AUTO 02004KT 10SM SCT010 OVC015 01/M02 A2978 RMK AO2
KPHN 160815Z AUTO 36006KT 10SM OVC018 01/M02 A2978 RMK AO2
KPHN 160755Z AUTO 01006KT 10SM SCT022 BKN032 01/M02 A2977 RMK AO2